sensor_id;sensor_type;location;lat;lon;timestamp;pressure;altitude;pressure_sealevel;temperature;humidity
49122;BME280;35529;44.342;25.944;2022-09-09T00:03:54;100736.91;;;18.41;100.00
49122;BME280;35529;44.342;25.944;2022-09-09T00:06:24;100737.03;;;18.35;100.00
49122;BME280;35529;44.342;25.944;2022-09-09T00:11:29;100743.16;;;18.30;100.00
49122;BME280;35529;44.342;25.944;2022-09-09T00:14:00;100739.09;;;18.28;100.00
49122;BME280;35529;44.342;25.944;2022-09-09T00:16:30;100743.88;;;18.25;100.00
49122;BME280;35529;44.342;25.944;2022-09-09T00:19:13;100742.47;;;18.23;100.00
49122;BME280;35529;44.342;25.944;2022-09-09T00:21:49;100735.72;;;18.20;100.00
49122;BME280;35529;44.342;25.944;2022-09-09T00:26:45;100735.28;;;18.12;100.00
49122;BME280;35529;44.342;25.944;2022-09-09T00:29:49;100745.13;;;18.06;100.00
49122;BME280;35529;44.342;25.944;2022-09-09T00:32:16;100735.34;;;18.00;100.00
49122;BME280;35529;44.342;25.944;2022-09-09T00:34:48;100737.13;;;17.94;100.00
49122;BME280;35529;44.342;25.944;2022-09-09T00:37:19;100740.72;;;17.88;100.00
49122;BME280;35529;44.342;25.944;2022-09-09T00:39:46;100738.50;;;17.85;100.00
49122;BME280;35529;44.342;25.944;2022-09-09T00:42:16;100743.28;;;17.83;100.00
49122;BME280;35529;44.342;25.944;2022-09-09T00:44:53;100740.63;;;17.83;100.00
49122;BME280;35529;44.342;25.944;2022-09-09T00:47:28;100743.88;;;17.85;100.00
49122;BME280;35529;44.342;25.944;2022-09-09T00:50:42;100738.16;;;17.81;100.00
49122;BME280;35529;44.342;25.944;2022-09-09T00:58:06;100728.97;;;17.77;100.00
49122;BME280;35529;44.342;25.944;2022-09-09T01:00:41;100728.97;;;17.77;100.00
49122;BME280;35529;44.342;25.944;2022-09-09T01:06:13;100726.28;;;17.77;100.00
49122;BME280;35529;44.342;25.944;2022-09-09T01:11:07;100722.69;;;17.71;100.00
49122;BME280;35529;44.342;25.944;2022-09-09T01:13:39;100731.44;;;17.67;100.00
49122;BME280;35529;44.342;25.944;2022-09-09T01:16:08;100717.44;;;17.65;100.00
49122;BME280;35529;44.342;25.944;2022-09-09T01:18:39;100719.53;;;17.63;100.00
49122;BME280;35529;44.342;25.944;2022-09-09T01:21:13;100715.94;;;17.57;100.00
49122;BME280;35529;44.342;25.944;2022-09-09T01:26:32;100710.69;;;17.50;100.00
49122;BME280;35529;44.342;25.944;2022-09-09T01:29:13;100704.75;;;17.48;100.00
49122;BME280;35529;44.342;25.944;2022-09-09T01:31:52;100711.41;;;17.46;100.00
49122;BME280;35529;44.342;25.944;2022-09-09T01:34:18;100702.28;;;17.47;100.00
49122;BME280;35529;44.342;25.944;2022-09-09T01:39:19;100705.47;;;17.43;100.00
49122;BME280;35529;44.342;25.944;2022-09-09T01:41:48;100705.94;;;17.40;100.00
49122;BME280;35529;44.342;25.944;2022-09-09T01:44:20;100701.50;;;17.34;100.00
49122;BME280;35529;44.342;25.944;2022-09-09T01:46:49;100696.03;;;17.29;100.00
49122;BME280;35529;44.342;25.944;2022-09-09T01:49:18;100703.16;;;17.23;100.00
49122;BME280;35529;44.342;25.944;2022-09-09T01:51:46;100700.94;;;17.20;100.00
49122;BME280;35529;44.342;25.944;2022-09-09T01:54:19;100705.47;;;17.20;100.00
49122;BME280;35529;44.342;25.944;2022-09-09T02:05:30;100731.88;;;17.23;100.00
49122;BME280;35529;44.342;25.944;2022-09-09T02:08:06;100736.63;;;17.21;100.00
49122;BME280;35529;44.342;25.944;2022-09-09T02:10:38;100724.28;;;17.08;100.00
49122;BME280;35529;44.342;25.944;2022-09-09T02:13:12;100719.97;;;17.19;100.00
49122;BME280;35529;44.342;25.944;2022-09-09T02:18:27;100725.78;;;17.16;100.00
49122;BME280;35529;44.342;25.944;2022-09-09T02:20:54;100734.91;;;17.15;100.00
49122;BME280;35529;44.342;25.944;2022-09-09T02:23:24;100734.06;;;17.14;100.00
49122;BME280;35529;44.342;25.944;2022-09-09T02:25:51;100735.22;;;17.06;100.00
49122;BME280;35529;44.342;25.944;2022-09-09T02:28:21;100724.06;;;17.09;100.00
49122;BME280;35529;44.342;25.944;2022-09-09T02:30:49;100730.81;;;17.12;100.00
49122;BME280;35529;44.342;25.944;2022-09-09T02:33:24;100727.31;;;17.12;100.00
49122;BME280;35529;44.342;25.944;2022-09-09T02:35:52;100735.13;;;17.13;100.00
49122;BME280;35529;44.342;25.944;2022-09-09T02:38:18;100729.53;;;17.15;100.00
49122;BME280;35529;44.342;25.944;2022-09-09T02:40:46;100735.00;;;17.20;100.00
49122;BME280;35529;44.342;25.944;2022-09-09T02:43:13;100724.38;;;17.25;100.00
49122;BME280;35529;44.342;25.944;2022-09-09T02:45:44;100726.03;;;17.26;100.00
49122;BME280;35529;44.342;25.944;2022-09-09T02:48:18;100724.38;;;17.25;100.00
49122;BME280;35529;44.342;25.944;2022-09-09T02:50:54;100729.75;;;17.25;100.00
49122;BME280;35529;44.342;25.944;2022-09-09T02:53:31;100729.19;;;17.23;100.00
49122;BME280;35529;44.342;25.944;2022-09-09T02:56:08;100733.72;;;17.22;100.00
49122;BME280;35529;44.342;25.944;2022-09-09T02:58:36;100731.28;;;17.21;100.00
49122;BME280;35529;44.342;25.944;2022-09-09T03:01:02;100724.50;;;17.18;100.00
49122;BME280;35529;44.342;25.944;2022-09-09T03:03:29;100722.06;;;17.17;100.00
49122;BME280;35529;44.342;25.944;2022-09-09T03:05:56;100721.25;;;17.16;100.00
49122;BME280;35529;44.342;25.944;2022-09-09T03:08:25;100719.03;;;17.13;100.00
49122;BME280;35529;44.342;25.944;2022-09-09T03:10:58;100716.56;;;17.12;100.00
49122;BME280;35529;44.342;25.944;2022-09-09T03:13:24;100716.00;;;17.09;100.00
49122;BME280;35529;44.342;25.944;2022-09-09T03:15:51;100716.69;;;17.05;100.00
49122;BME280;35529;44.342;25.944;2022-09-09T03:18:17;100720.09;;;17.00;100.00
49122;BME280;35529;44.342;25.944;2022-09-09T03:20:43;100722.28;;;17.03;100.00
49122;BME280;35529;44.342;25.944;2022-09-09T03:23:09;100728.03;;;17.07;100.00
49122;BME280;35529;44.342;25.944;2022-09-09T03:25:35;100721.63;;;17.08;100.00
49122;BME280;35529;44.342;25.944;2022-09-09T03:28:02;100713.91;;;17.12;100.00
49122;BME280;35529;44.342;25.944;2022-09-09T03:30:28;100712.28;;;17.11;100.00
49122;BME280;35529;44.342;25.944;2022-09-09T03:32:54;100713.09;;;17.11;100.00
49122;BME280;35529;44.342;25.944;2022-09-09T03:35:21;100713.66;;;17.13;100.00
49122;BME280;35529;44.342;25.944;2022-09-09T03:37:47;100717.97;;;17.14;100.00
49122;BME280;35529;44.342;25.944;2022-09-09T03:40:13;100708.09;;;17.15;100.00
49122;BME280;35529;44.342;25.944;2022-09-09T03:42:39;100710.16;;;17.13;100.00
49122;BME280;35529;44.342;25.944;2022-09-09T03:45:06;100709.59;;;17.11;100.00
49122;BME280;35529;44.342;25.944;2022-09-09T03:47:33;100721.38;;;17.09;100.00
49122;BME280;35529;44.342;25.944;2022-09-09T03:49:59;100724.50;;;17.06;100.00
49122;BME280;35529;44.342;25.944;2022-09-09T03:52:25;100715.09;;;17.04;100.00
49122;BME280;35529;44.342;25.944;2022-09-09T03:54:52;100712.97;;;17.06;100.00
49122;BME280;35529;44.342;25.944;2022-09-09T03:57:19;100712.16;;;17.05;100.00
49122;BME280;35529;44.342;25.944;2022-09-09T03:59:45;100704.13;;;17.05;100.00
49122;BME280;35529;44.342;25.944;2022-09-09T04:02:11;100696.88;;;17.06;100.00
49122;BME280;35529;44.342;25.944;2022-09-09T04:04:39;100696.63;;;17.07;100.00
49122;BME280;35529;44.342;25.944;2022-09-09T04:07:05;100691.16;;;17.14;100.00
49122;BME280;35529;44.342;25.944;2022-09-09T04:09:34;100691.03;;;17.21;100.00
49122;BME280;35529;44.342;25.944;2022-09-09T04:12:00;100683.88;;;17.26;100.00
49122;BME280;35529;44.342;25.944;2022-09-09T04:14:26;100690.44;;;17.31;100.00
49122;BME280;35529;44.342;25.944;2022-09-09T04:16:54;100690.22;;;17.32;100.00
49122;BME280;35529;44.342;25.944;2022-09-09T04:19:23;100691.59;;;17.35;100.00
49122;BME280;35529;44.342;25.944;2022-09-09T04:21:49;100695.34;;;17.34;100.00
49122;BME280;35529;44.342;25.944;2022-09-09T04:24:17;100698.38;;;17.37;100.00
49122;BME280;35529;44.342;25.944;2022-09-09T04:26:43;100699.53;;;17.41;100.00
49122;BME280;35529;44.342;25.944;2022-09-09T04:29:09;100710.13;;;17.48;100.00
49122;BME280;35529;44.342;25.944;2022-09-09T04:31:35;100714.28;;;17.56;100.00
49122;BME280;35529;44.342;25.944;2022-09-09T04:34:01;100711.16;;;17.59;100.00
49122;BME280;35529;44.342;25.944;2022-09-09T04:36:31;100715.44;;;17.60;100.00
49122;BME280;35529;44.342;25.944;2022-09-09T04:38:58;100711.28;;;17.64;100.00
49122;BME280;35529;44.342;25.944;2022-09-09T04:41:24;100704.81;;;17.65;100.00
49122;BME280;35529;44.342;25.944;2022-09-09T04:43:50;100713.09;;;17.75;100.00
49122;BME280;35529;44.342;25.944;2022-09-09T04:46:16;100715.16;;;17.85;100.00
49122;BME280;35529;44.342;25.944;2022-09-09T04:48:45;100718.56;;;17.92;100.00
49122;BME280;35529;44.342;25.944;2022-09-09T04:51:12;100721.09;;;17.99;100.00
49122;BME280;35529;44.342;25.944;2022-09-09T04:53:38;100720.72;;;18.07;100.00
49122;BME280;35529;44.342;25.944;2022-09-09T04:56:09;100722.34;;;18.08;100.00
49122;BME280;35529;44.342;25.944;2022-09-09T04:58:37;100715.53;;;18.18;100.00
49122;BME280;35529;44.342;25.944;2022-09-09T05:03:30;100710.50;;;18.38;100.00
49122;BME280;35529;44.342;25.944;2022-09-09T05:06:03;100707.25;;;18.53;100.00
49122;BME280;35529;44.342;25.944;2022-09-09T05:08:31;100709.53;;;18.62;100.00
49122;BME280;35529;44.342;25.944;2022-09-09T05:10:57;100708.41;;;18.74;100.00
49122;BME280;35529;44.342;25.944;2022-09-09T05:13:25;100716.31;;;18.81;100.00
49122;BME280;35529;44.342;25.944;2022-09-09T05:15:52;100714.59;;;18.92;100.00
49122;BME280;35529;44.342;25.944;2022-09-09T05:18:19;100719.16;;;19.08;100.00
49122;BME280;35529;44.342;25.944;2022-09-09T05:20:45;100715.31;;;19.21;100.00
49122;BME280;35529;44.342;25.944;2022-09-09T05:23:11;100717.06;;;19.33;100.00
49122;BME280;35529;44.342;25.944;2022-09-09T05:25:39;100713.19;;;19.46;100.00
49122;BME280;35529;44.342;25.944;2022-09-09T05:28:06;100722.78;;;19.58;100.00
49122;BME280;35529;44.342;25.944;2022-09-09T05:30:33;100719.59;;;19.62;100.00
49122;BME280;35529;44.342;25.944;2022-09-09T05:32:59;100716.19;;;19.71;100.00
49122;BME280;35529;44.342;25.944;2022-09-09T05:35:26;100702.94;;;19.87;100.00
49122;BME280;35529;44.342;25.944;2022-09-09T05:37:52;100690.69;;;20.01;100.00
49122;BME280;35529;44.342;25.944;2022-09-09T05:40:18;100690.81;;;20.17;100.00
49122;BME280;35529;44.342;25.944;2022-09-09T05:42:45;100690.09;;;20.26;100.00
49122;BME280;35529;44.342;25.944;2022-09-09T05:45:11;100686.44;;;20.38;100.00
49122;BME280;35529;44.342;25.944;2022-09-09T05:47:37;100682.47;;;20.51;100.00
49122;BME280;35529;44.342;25.944;2022-09-09T05:50:03;100672.34;;;20.63;100.00
49122;BME280;35529;44.342;25.944;2022-09-09T05:52:30;100658.16;;;20.78;100.00
49122;BME280;35529;44.342;25.944;2022-09-09T05:54:56;100656.38;;;20.94;100.00
49122;BME280;35529;44.342;25.944;2022-09-09T05:57:22;100654.56;;;21.10;100.00
49122;BME280;35529;44.342;25.944;2022-09-09T05:59:48;100659.78;;;21.32;100.00
49122;BME280;35529;44.342;25.944;2022-09-09T06:02:15;100664.69;;;21.46;100.00
49122;BME280;35529;44.342;25.944;2022-09-09T06:04:42;100671.22;;;21.55;100.00
49122;BME280;35529;44.342;25.944;2022-09-09T06:07:08;100667.50;;;21.66;100.00
49122;BME280;35529;44.342;25.944;2022-09-09T06:09:34;100671.28;;;21.81;100.00
49122;BME280;35529;44.342;25.944;2022-09-09T06:12:00;100663.78;;;21.98;100.00
49122;BME280;35529;44.342;25.944;2022-09-09T06:14:26;100667.28;;;22.14;100.00
49122;BME280;35529;44.342;25.944;2022-09-09T06:16:53;100656.75;;;22.23;99.99
49122;BME280;35529;44.342;25.944;2022-09-09T06:19:19;100650.84;;;22.36;100.00
49122;BME280;35529;44.342;25.944;2022-09-09T06:21:46;100642.72;;;22.47;93.92
49122;BME280;35529;44.342;25.944;2022-09-09T06:24:13;100647.03;;;22.58;99.18
49122;BME280;35529;44.342;25.944;2022-09-09T06:26:42;100670.53;;;22.68;100.00
49122;BME280;35529;44.342;25.944;2022-09-09T06:29:09;100670.81;;;22.71;99.86
49122;BME280;35529;44.342;25.944;2022-09-09T06:31:35;100671.34;;;22.84;100.00
49122;BME280;35529;44.342;25.944;2022-09-09T06:34:04;100684.06;;;22.88;100.00
49122;BME280;35529;44.342;25.944;2022-09-09T06:36:32;100680.00;;;22.96;100.00
49122;BME280;35529;44.342;25.944;2022-09-09T06:38:58;100694.59;;;23.05;100.00
49122;BME280;35529;44.342;25.944;2022-09-09T06:41:26;100703.78;;;23.20;100.00
49122;BME280;35529;44.342;25.944;2022-09-09T06:43:52;100711.84;;;23.35;100.00
49122;BME280;35529;44.342;25.944;2022-09-09T06:46:19;100710.41;;;23.53;100.00
49122;BME280;35529;44.342;25.944;2022-09-09T06:48:45;100703.53;;;23.76;100.00
49122;BME280;35529;44.342;25.944;2022-09-09T06:51:12;100688.03;;;23.87;100.00
49122;BME280;35529;44.342;25.944;2022-09-09T06:53:39;100689.09;;;23.97;100.00
49122;BME280;35529;44.342;25.944;2022-09-09T06:56:19;100667.38;;;23.97;89.28
49122;BME280;35529;44.342;25.944;2022-09-09T06:58:47;100670.31;;;24.00;93.35
49122;BME280;35529;44.342;25.944;2022-09-09T07:01:15;100673.56;;;24.07;92.66
49122;BME280;35529;44.342;25.944;2022-09-09T07:03:42;100669.66;;;24.19;92.68
49122;BME280;35529;44.342;25.944;2022-09-09T07:06:09;100666.28;;;24.32;93.36
49122;BME280;35529;44.342;25.944;2022-09-09T07:08:40;100669.44;;;24.44;95.35
49122;BME280;35529;44.342;25.944;2022-09-09T07:11:07;100662.88;;;24.51;86.33
49122;BME280;35529;44.342;25.944;2022-09-09T07:13:34;100657.91;;;24.63;85.22
49122;BME280;35529;44.342;25.944;2022-09-09T07:16:04;100661.06;;;24.75;83.30
49122;BME280;35529;44.342;25.944;2022-09-09T07:18:30;100664.72;;;24.85;89.56
49122;BME280;35529;44.342;25.944;2022-09-09T07:20:56;100670.06;;;24.95;95.58
49122;BME280;35529;44.342;25.944;2022-09-09T07:23:23;100680.81;;;25.05;92.87
49122;BME280;35529;44.342;25.944;2022-09-09T07:25:49;100683.94;;;25.18;96.48
49122;BME280;35529;44.342;25.944;2022-09-09T07:28:16;100688.22;;;25.24;96.58
49122;BME280;35529;44.342;25.944;2022-09-09T07:30:42;100695.72;;;25.32;93.06
49122;BME280;35529;44.342;25.944;2022-09-09T07:33:09;100680.78;;;25.35;90.70
49122;BME280;35529;44.342;25.944;2022-09-09T07:35:38;100670.72;;;25.54;87.83
49122;BME280;35529;44.342;25.944;2022-09-09T07:38:04;100667.13;;;25.59;84.32
49122;BME280;35529;44.342;25.944;2022-09-09T07:40:35;100670.44;;;25.75;87.70
49122;BME280;35529;44.342;25.944;2022-09-09T07:43:02;100680.00;;;25.91;89.27
49122;BME280;35529;44.342;25.944;2022-09-09T07:45:28;100680.16;;;26.00;89.78
49122;BME280;35529;44.342;25.944;2022-09-09T07:47:54;100692.50;;;26.12;91.90
49122;BME280;35529;44.342;25.944;2022-09-09T07:50:23;100686.63;;;26.23;90.58
49122;BME280;35529;44.342;25.944;2022-09-09T07:52:52;100690.78;;;26.35;90.60
49122;BME280;35529;44.342;25.944;2022-09-09T07:55:19;100688.03;;;26.35;88.85
49122;BME280;35529;44.342;25.944;2022-09-09T07:57:45;100688.88;;;26.35;83.49
49122;BME280;35529;44.342;25.944;2022-09-09T08:00:12;100695.00;;;26.27;76.70
49122;BME280;35529;44.342;25.944;2022-09-09T08:02:40;100686.66;;;26.04;70.35
49122;BME280;35529;44.342;25.944;2022-09-09T08:05:06;100690.50;;;25.98;75.78
49122;BME280;35529;44.342;25.944;2022-09-09T08:07:32;100696.41;;;26.05;79.73
49122;BME280;35529;44.342;25.944;2022-09-09T08:09:58;100697.63;;;26.32;86.83
49122;BME280;35529;44.342;25.944;2022-09-09T08:12:25;100694.41;;;26.63;87.74
49122;BME280;35529;44.342;25.944;2022-09-09T08:14:51;100687.19;;;27.00;91.77
49122;BME280;35529;44.342;25.944;2022-09-09T08:17:17;100675.47;;;27.27;78.87
49122;BME280;35529;44.342;25.944;2022-09-09T08:19:43;100676.28;;;27.56;78.57
49122;BME280;35529;44.342;25.944;2022-09-09T08:22:10;100669.19;;;27.55;65.42
49122;BME280;35529;44.342;25.944;2022-09-09T08:24:36;100667.81;;;27.43;71.37
49122;BME280;35529;44.342;25.944;2022-09-09T08:27:02;100674.44;;;27.65;76.53
49122;BME280;35529;44.342;25.944;2022-09-09T08:29:28;100657.09;;;27.84;66.96
49122;BME280;35529;44.342;25.944;2022-09-09T08:31:56;100656.47;;;27.87;50.25
49122;BME280;35529;44.342;25.944;2022-09-09T08:34:23;100649.28;;;27.91;65.95
49122;BME280;35529;44.342;25.944;2022-09-09T08:36:50;100645.19;;;28.02;53.08
49122;BME280;35529;44.342;25.944;2022-09-09T08:39:17;100648.88;;;28.20;62.10
49122;BME280;35529;44.342;25.944;2022-09-09T08:51:57;100637.22;;;29.00;56.79
49122;BME280;35529;44.342;25.944;2022-09-09T08:54:23;100632.88;;;28.99;62.48
49122;BME280;35529;44.342;25.944;2022-09-09T08:56:52;100628.94;;;28.83;62.90
49122;BME280;35529;44.342;25.944;2022-09-09T08:59:18;100627.63;;;28.71;48.99
49122;BME280;35529;44.342;25.944;2022-09-09T09:01:53;100625.53;;;28.68;56.03
49122;BME280;35529;44.342;25.944;2022-09-09T09:07:15;100623.63;;;28.78;59.54
49122;BME280;35529;44.342;25.944;2022-09-09T09:12:20;100617.28;;;29.08;57.81
49122;BME280;35529;44.342;25.944;2022-09-09T09:14:46;100610.09;;;29.39;65.61
49122;BME280;35529;44.342;25.944;2022-09-09T09:19:40;100609.94;;;29.79;51.26
49122;BME280;35529;44.342;25.944;2022-09-09T09:22:18;100608.00;;;29.71;52.36
49122;BME280;35529;44.342;25.944;2022-09-09T09:24:50;100602.38;;;29.76;51.48
49122;BME280;35529;44.342;25.944;2022-09-09T09:27:21;100608.50;;;29.73;60.18
49122;BME280;35529;44.342;25.944;2022-09-09T09:29:51;100613.81;;;29.87;64.29
49122;BME280;35529;44.342;25.944;2022-09-09T09:32:21;100610.47;;;29.90;65.08
49122;BME280;35529;44.342;25.944;2022-09-09T09:34:49;100605.94;;;29.94;51.37
49122;BME280;35529;44.342;25.944;2022-09-09T09:37:17;100608.47;;;30.08;66.16
49122;BME280;35529;44.342;25.944;2022-09-09T09:39:47;100606.69;;;30.21;62.56
49122;BME280;35529;44.342;25.944;2022-09-09T09:42:16;100601.00;;;30.26;73.22
49122;BME280;35529;44.342;25.944;2022-09-09T09:44:43;100592.31;;;30.24;61.95
49122;BME280;35529;44.342;25.944;2022-09-09T09:49:39;100595.13;;;30.54;60.99
49122;BME280;35529;44.342;25.944;2022-09-09T09:52:06;100599.59;;;30.67;57.24
49122;BME280;35529;44.342;25.944;2022-09-09T09:54:38;100591.75;;;30.87;48.44
49122;BME280;35529;44.342;25.944;2022-09-09T09:57:08;100587.91;;;31.09;53.96
49122;BME280;35529;44.342;25.944;2022-09-09T09:59:35;100588.06;;;31.13;47.42
49122;BME280;35529;44.342;25.944;2022-09-09T10:04:46;100600.44;;;31.61;55.82
49122;BME280;35529;44.342;25.944;2022-09-09T10:07:17;100595.97;;;31.78;56.25
49122;BME280;35529;44.342;25.944;2022-09-09T10:09:43;100604.78;;;31.83;60.50
49122;BME280;35529;44.342;25.944;2022-09-09T10:14:54;100596.03;;;32.02;47.59
49122;BME280;35529;44.342;25.944;2022-09-09T10:22:34;100600.56;;;32.32;60.62
49122;BME280;35529;44.342;25.944;2022-09-09T10:27:42;100590.97;;;32.38;49.64
49122;BME280;35529;44.342;25.944;2022-09-09T10:30:16;100591.28;;;32.24;52.26
49122;BME280;35529;44.342;25.944;2022-09-09T10:35:30;100588.69;;;31.94;56.48
49122;BME280;35529;44.342;25.944;2022-09-09T10:40:34;100587.34;;;32.00;42.15
49122;BME280;35529;44.342;25.944;2022-09-09T10:43:16;100585.88;;;32.15;55.91
49122;BME280;35529;44.342;25.944;2022-09-09T10:45:59;100583.88;;;32.37;57.81
49122;BME280;35529;44.342;25.944;2022-09-09T10:51:23;100583.75;;;32.83;57.38
49122;BME280;35529;44.342;25.944;2022-09-09T10:56:23;100580.63;;;33.09;62.75
49122;BME280;35529;44.342;25.944;2022-09-09T10:58:56;100566.28;;;33.16;41.16
49122;BME280;35529;44.342;25.944;2022-09-09T11:01:34;100577.06;;;33.21;65.72
49122;BME280;35529;44.342;25.944;2022-09-09T11:04:05;100568.03;;;33.08;66.28
49122;BME280;35529;44.342;25.944;2022-09-09T11:06:37;100561.56;;;32.75;45.77
49122;BME280;35529;44.342;25.944;2022-09-09T11:09:05;100560.16;;;32.57;41.92
49122;BME280;35529;44.342;25.944;2022-09-09T11:11:52;100569.09;;;32.54;47.99
49122;BME280;35529;44.342;25.944;2022-09-09T11:16:53;100571.16;;;32.82;45.81
49122;BME280;35529;44.342;25.944;2022-09-09T11:19:27;100573.09;;;32.94;44.47
49122;BME280;35529;44.342;25.944;2022-09-09T11:21:55;100571.03;;;32.90;54.10
49122;BME280;35529;44.342;25.944;2022-09-09T11:24:26;100559.13;;;32.37;35.89
49122;BME280;35529;44.342;25.944;2022-09-09T11:32:38;100557.28;;;32.66;43.42
49122;BME280;35529;44.342;25.944;2022-09-09T11:35:14;100550.53;;;32.51;36.95
49122;BME280;35529;44.342;25.944;2022-09-09T11:37:50;100552.81;;;32.61;40.54
49122;BME280;35529;44.342;25.944;2022-09-09T11:42:46;100544.28;;;33.03;52.41
49122;BME280;35529;44.342;25.944;2022-09-09T11:45:23;100548.59;;;33.17;53.25
49122;BME280;35529;44.342;25.944;2022-09-09T11:47:54;100546.78;;;33.21;43.42
49122;BME280;35529;44.342;25.944;2022-09-09T11:52:47;100551.72;;;33.15;51.76
49122;BME280;35529;44.342;25.944;2022-09-09T11:57:59;100549.16;;;32.94;37.61
49122;BME280;35529;44.342;25.944;2022-09-09T12:00:36;100543.88;;;32.64;35.37
49122;BME280;35529;44.342;25.944;2022-09-09T12:03:04;100544.34;;;32.29;34.65
49122;BME280;35529;44.342;25.944;2022-09-09T12:05:40;100535.19;;;32.37;41.27
49122;BME280;35529;44.342;25.944;2022-09-09T12:08:09;100538.97;;;32.57;44.18
49122;BME280;35529;44.342;25.944;2022-09-09T12:10:40;100535.19;;;32.62;46.68
49122;BME280;35529;44.342;25.944;2022-09-09T12:13:16;100526.59;;;32.76;38.72
49122;BME280;35529;44.342;25.944;2022-09-09T12:15:49;100527.63;;;32.84;52.54
49122;BME280;35529;44.342;25.944;2022-09-09T12:18:21;100520.13;;;32.97;56.99
49122;BME280;35529;44.342;25.944;2022-09-09T12:21:14;100513.47;;;32.98;63.40
49122;BME280;35529;44.342;25.944;2022-09-09T12:31:14;100502.75;;;32.80;38.72
49122;BME280;35529;44.342;25.944;2022-09-09T12:33:44;100507.13;;;32.69;38.33
49122;BME280;35529;44.342;25.944;2022-09-09T12:36:32;100501.56;;;32.40;35.05
49122;BME280;35529;44.342;25.944;2022-09-09T12:38:59;100509.31;;;32.14;59.41
49122;BME280;35529;44.342;25.944;2022-09-09T12:41:36;100497.91;;;31.78;35.14
49122;BME280;35529;44.342;25.944;2022-09-09T12:44:03;100493.41;;;31.61;39.61
49122;BME280;35529;44.342;25.944;2022-09-09T12:46:32;100498.25;;;31.43;40.41
49122;BME280;35529;44.342;25.944;2022-09-09T12:48:59;100500.28;;;31.34;39.24
49122;BME280;35529;44.342;25.944;2022-09-09T12:51:34;100495.28;;;31.15;38.40
49122;BME280;35529;44.342;25.944;2022-09-09T12:54:01;100494.00;;;30.91;38.26
49122;BME280;35529;44.342;25.944;2022-09-09T12:56:28;100494.81;;;30.70;54.02
49122;BME280;35529;44.342;25.944;2022-09-09T12:58:56;100493.38;;;30.64;41.99
49122;BME280;35529;44.342;25.944;2022-09-09T13:01:23;100493.03;;;30.36;40.00
49122;BME280;35529;44.342;25.944;2022-09-09T13:03:50;100481.94;;;30.32;40.96
49122;BME280;35529;44.342;25.944;2022-09-09T13:06:20;100485.59;;;30.36;72.46
49122;BME280;35529;44.342;25.944;2022-09-09T13:08:49;100485.00;;;30.31;76.07
49122;BME280;35529;44.342;25.944;2022-09-09T13:11:23;100494.69;;;30.19;94.12
49122;BME280;35529;44.342;25.944;2022-09-09T13:13:54;100488.63;;;30.14;86.52
49122;BME280;35529;44.342;25.944;2022-09-09T13:16:26;100492.19;;;30.05;90.27
49122;BME280;35529;44.342;25.944;2022-09-09T13:18:56;100471.00;;;29.85;47.06
49122;BME280;35529;44.342;25.944;2022-09-09T13:21:33;100481.78;;;29.81;78.00
49122;BME280;35529;44.342;25.944;2022-09-09T13:24:01;100489.84;;;29.86;89.23
49122;BME280;35529;44.342;25.944;2022-09-09T13:26:33;100465.88;;;29.74;53.40
49122;BME280;35529;44.342;25.944;2022-09-09T13:29:18;100482.91;;;29.80;83.94
49122;BME280;35529;44.342;25.944;2022-09-09T13:31:47;100459.41;;;29.79;67.67
49122;BME280;35529;44.342;25.944;2022-09-09T13:34:25;100452.41;;;29.61;52.29
49122;BME280;35529;44.342;25.944;2022-09-09T13:36:59;100460.28;;;29.62;79.17
49122;BME280;35529;44.342;25.944;2022-09-09T13:39:28;100463.34;;;29.52;68.43
49122;BME280;35529;44.342;25.944;2022-09-09T13:41:54;100453.38;;;29.56;63.17
49122;BME280;35529;44.342;25.944;2022-09-09T13:44:21;100466.88;;;29.61;87.44
49122;BME280;35529;44.342;25.944;2022-09-09T13:47:06;100463.66;;;29.59;74.73
49122;BME280;35529;44.342;25.944;2022-09-09T13:49:35;100465.75;;;29.62;85.04
49122;BME280;35529;44.342;25.944;2022-09-09T13:52:08;100469.81;;;29.47;95.12
49122;BME280;35529;44.342;25.944;2022-09-09T13:54:37;100452.41;;;29.52;66.65
49122;BME280;35529;44.342;25.944;2022-09-09T13:57:11;100459.50;;;29.44;72.34
49122;BME280;35529;44.342;25.944;2022-09-09T13:59:39;100456.16;;;29.30;60.13
49122;BME280;35529;44.342;25.944;2022-09-09T14:02:06;100458.88;;;29.21;61.74
49122;BME280;35529;44.342;25.944;2022-09-09T14:04:33;100462.72;;;29.20;78.56
49122;BME280;35529;44.342;25.944;2022-09-09T14:07:01;100455.03;;;29.04;66.78
49122;BME280;35529;44.342;25.944;2022-09-09T14:09:27;100448.44;;;28.97;69.91
49122;BME280;35529;44.342;25.944;2022-09-09T14:11:53;100444.09;;;28.87;56.10
49122;BME280;35529;44.342;25.944;2022-09-09T14:14:20;100436.38;;;28.71;55.56
49122;BME280;35529;44.342;25.944;2022-09-09T14:16:47;100439.09;;;28.71;64.13
49122;BME280;35529;44.342;25.944;2022-09-09T14:19:13;100431.06;;;28.66;54.76
49122;BME280;35529;44.342;25.944;2022-09-09T14:21:39;100445.38;;;28.81;92.69
49122;BME280;35529;44.342;25.944;2022-09-09T14:24:07;100437.97;;;28.72;81.19
49122;BME280;35529;44.342;25.944;2022-09-09T14:26:33;100422.56;;;28.76;71.36
49122;BME280;35529;44.342;25.944;2022-09-09T14:29:00;100450.66;;;28.77;100.00
49122;BME280;35529;44.342;25.944;2022-09-09T14:31:26;100426.22;;;28.63;67.36